createdAt,value
2019-04-06T00:00:20.170Z,11.70
2019-04-06T00:02:48.890Z,11.90
2019-04-06T00:05:17.586Z,11.80
2019-04-06T00:07:46.267Z,11.80
2019-04-06T00:10:15.775Z,12.00
2019-04-06T00:12:44.462Z,12.10
2019-04-06T00:15:13.595Z,11.90
2019-04-06T00:17:42.306Z,11.90
2019-04-06T00:20:10.996Z,11.70
2019-04-06T00:22:39.705Z,11.90
2019-04-06T00:25:09.988Z,12.10
2019-04-06T00:27:38.676Z,11.90
2019-04-06T00:30:08.378Z,12.00
2019-04-06T00:32:41.500Z,11.90
2019-04-06T00:35:10.421Z,11.80
2019-04-06T00:37:39.284Z,12.30
2019-04-06T00:40:08.267Z,11.80
2019-04-06T00:42:37.050Z,12.00
2019-04-06T00:45:06.754Z,12.20
2019-04-06T00:47:35.481Z,12.20
2019-04-06T00:50:06.670Z,12.10
2019-04-06T00:52:35.364Z,12.10
2019-04-06T00:55:05.483Z,12.30
2019-04-06T00:57:35.242Z,12.10
2019-04-06T01:00:05.435Z,12.00
2019-04-06T01:02:34.135Z,12.10
2019-04-06T01:05:02.888Z,12.20
2019-04-06T01:07:31.591Z,12.20
2019-04-06T01:10:00.504Z,12.40
2019-04-06T01:12:29.176Z,12.30
2019-04-06T01:14:57.887Z,12.10
2019-04-06T01:17:26.618Z,12.30
2019-04-06T01:19:55.330Z,12.40
2019-04-06T01:22:24.008Z,12.50
2019-04-06T01:24:52.747Z,12.30
2019-04-06T01:27:21.553Z,12.50
2019-04-06T01:29:50.271Z,12.30
2019-04-06T01:32:18.951Z,12.40
2019-04-06T01:34:48.984Z,12.40
2019-04-06T01:37:17.923Z,12.00
2019-04-06T01:39:46.662Z,12.30
2019-04-06T01:42:15.423Z,12.20
2019-04-06T01:44:44.153Z,12.10
2019-04-06T01:47:12.846Z,12.10
2019-04-06T01:49:41.516Z,12.20
2019-04-06T01:52:10.247Z,12.00
2019-04-06T01:54:38.942Z,11.90
2019-04-06T01:57:07.714Z,12.20
2019-04-06T01:59:36.378Z,12.20
2019-04-06T02:02:12.648Z,12.40
2019-04-06T02:04:41.335Z,12.30
2019-04-06T02:07:10.095Z,12.30
2019-04-06T02:09:38.824Z,12.00
2019-04-06T02:12:07.541Z,11.90
2019-04-06T02:14:36.360Z,12.00
2019-04-06T02:17:05.287Z,11.90
2019-04-06T02:19:33.938Z,12.00
2019-04-06T02:22:02.760Z,12.00
2019-04-06T02:24:31.624Z,11.80
2019-04-06T02:27:00.332Z,11.80
2019-04-06T02:29:29.003Z,11.80
2019-04-06T02:32:02.056Z,11.50
2019-04-06T02:34:50.376Z,11.50
2019-04-06T02:37:20.699Z,11.60
2019-04-06T02:39:56.882Z,11.70
2019-04-06T02:42:29.911Z,11.80
2019-04-06T02:44:58.636Z,12.00
2019-04-06T02:47:27.444Z,12.00
2019-04-06T02:49:56.292Z,12.10
2019-04-06T02:52:25.000Z,12.00
2019-04-06T02:54:53.746Z,12.20
2019-04-06T02:57:22.478Z,12.30
2019-04-06T02:59:51.217Z,12.40
2019-04-06T03:02:19.917Z,12.20
2019-04-06T03:04:48.637Z,12.50
2019-04-06T03:07:17.468Z,12.40
2019-04-06T03:09:46.521Z,12.40
2019-04-06T03:12:15.263Z,12.30
2019-04-06T03:14:44.845Z,11.90
2019-04-06T03:17:13.786Z,12.20
2019-04-06T03:19:42.439Z,12.10
2019-04-06T03:22:11.164Z,12.10
2019-04-06T03:24:39.930Z,12.00
2019-04-06T03:27:08.716Z,12.10
2019-04-06T03:29:37.409Z,12.30
2019-04-06T03:32:06.178Z,12.30
2019-04-06T03:34:35.027Z,12.30
2019-04-06T03:37:03.958Z,12.40
2019-04-06T03:39:32.808Z,12.10
2019-04-06T03:42:01.481Z,12.10
2019-04-06T03:44:30.195Z,12.10
2019-04-06T03:47:00.740Z,12.30
2019-04-06T03:49:29.711Z,11.90
2019-04-06T03:51:58.398Z,12.10
2019-04-06T03:54:27.196Z,12.10
2019-04-06T03:56:55.914Z,12.30
2019-04-06T03:59:24.583Z,12.20
2019-04-06T04:01:53.272Z,12.30
2019-04-06T04:04:21.980Z,12.50
2019-04-06T04:06:52.802Z,12.40
2019-04-06T04:09:21.983Z,12.10
2019-04-06T04:11:50.904Z,12.00
2019-04-06T04:14:19.845Z,11.90
2019-04-06T04:16:48.534Z,12.10
2019-04-06T04:19:17.250Z,11.80
2019-04-06T04:21:45.925Z,11.70
2019-04-06T04:24:14.638Z,12.10
2019-04-06T04:26:43.340Z,12.30
2019-04-06T04:29:12.330Z,12.30
2019-04-06T04:31:41.175Z,12.20
2019-04-06T04:34:10.184Z,12.20
2019-04-06T04:36:39.093Z,12.10
2019-04-06T04:39:08.445Z,12.50
2019-04-06T04:41:39.394Z,12.30
2019-04-06T04:44:08.009Z,12.20
2019-04-06T04:46:36.702Z,12.50
2019-04-06T04:49:05.621Z,12.40
2019-04-06T04:51:34.295Z,12.20
2019-04-06T04:54:03.003Z,12.50
2019-04-06T04:56:31.995Z,12.70
2019-04-06T04:59:00.771Z,12.70
2019-04-06T05:01:29.557Z,12.50
2019-04-06T05:03:58.276Z,12.70
2019-04-06T05:06:27.024Z,12.50
2019-04-06T05:08:55.859Z,12.50
2019-04-06T05:11:24.830Z,12.70
2019-04-06T05:14:13.015Z,12.60
2019-04-06T05:16:41.689Z,12.40
2019-04-06T05:19:10.362Z,12.60
2019-04-06T05:21:39.080Z,12.50
2019-04-06T05:24:07.952Z,12.20
2019-04-06T05:26:38.044Z,12.40
2019-04-06T05:29:07.183Z,12.30
2019-04-06T05:31:36.026Z,12.40
2019-04-06T05:34:05.296Z,12.40
2019-04-06T05:36:34.200Z,12.60
2019-04-06T05:39:03.310Z,12.20
2019-04-06T05:41:33.783Z,12.00
2019-04-06T05:44:02.491Z,12.00
2019-04-06T05:46:31.417Z,12.00
2019-04-06T05:49:00.202Z,12.30
2019-04-06T05:51:28.925Z,12.10
2019-04-06T05:53:57.755Z,12.50
2019-04-06T05:56:26.455Z,12.20
2019-04-06T05:58:55.162Z,12.60
2019-04-06T06:01:23.867Z,12.40
2019-04-06T06:03:52.574Z,12.40
2019-04-06T06:06:21.401Z,12.50
2019-04-06T06:08:50.256Z,12.30
2019-04-06T06:11:18.968Z,12.60
2019-04-06T06:13:50.393Z,12.30
2019-04-06T06:16:19.198Z,12.40
2019-04-06T06:18:48.060Z,12.50
2019-04-06T06:21:16.794Z,12.60
2019-04-06T06:23:45.665Z,12.60
2019-04-06T06:26:14.387Z,12.80
2019-04-06T06:28:43.451Z,12.70
2019-04-06T06:31:12.129Z,12.40
2019-04-06T06:33:41.069Z,12.70
2019-04-06T06:36:09.806Z,12.50
2019-04-06T06:38:39.308Z,12.70
2019-04-06T06:41:08.611Z,12.50
2019-04-06T06:43:37.584Z,12.80
2019-04-06T06:46:06.731Z,12.70
2019-04-06T06:48:35.407Z,12.90
2019-04-06T06:51:04.338Z,13.00
2019-04-06T06:53:33.557Z,12.80
2019-04-06T06:56:02.551Z,12.70
2019-04-06T06:58:31.409Z,12.60
2019-04-06T07:01:00.112Z,12.70
2019-04-06T07:03:28.793Z,12.90
2019-04-06T07:05:57.467Z,12.70
2019-04-06T07:08:26.207Z,13.00
2019-04-06T07:10:55.836Z,12.90
2019-04-06T07:13:24.541Z,12.60
2019-04-06T07:15:53.442Z,13.00
2019-04-06T07:18:22.115Z,12.90
2019-04-06T07:20:50.824Z,12.90
2019-04-06T07:23:19.713Z,13.10
2019-04-06T07:25:57.350Z,13.10
2019-04-06T07:28:20.497Z,13.10
2019-04-06T07:30:49.258Z,12.90
2019-04-06T07:33:17.967Z,12.70
2019-04-06T07:35:46.663Z,12.70
2019-04-06T07:38:15.348Z,12.60
2019-04-06T07:40:44.230Z,12.80
2019-04-06T07:43:12.965Z,13.10
2019-04-06T07:45:41.678Z,13.30
2019-04-06T07:48:10.363Z,13.40
2019-04-06T07:50:39.445Z,13.10
2019-04-06T07:53:08.586Z,13.30
2019-04-06T07:55:37.486Z,13.00
2019-04-06T07:58:06.334Z,13.30
2019-04-06T08:00:35.148Z,13.20
2019-04-06T08:03:04.070Z,13.10
2019-04-06T08:05:32.871Z,13.20
2019-04-06T08:08:01.855Z,13.50
2019-04-06T08:10:30.560Z,13.20
2019-04-06T08:12:59.272Z,13.30
2019-04-06T08:15:28.005Z,13.50
2019-04-06T08:17:56.691Z,13.40
2019-04-06T08:20:25.366Z,13.50
2019-04-06T08:22:54.359Z,13.60
2019-04-06T08:25:23.232Z,13.90
2019-04-06T08:27:51.988Z,13.80
2019-04-06T08:30:20.880Z,13.90
2019-04-06T08:32:49.842Z,14.00
2019-04-06T08:35:25.231Z,14.00
2019-04-06T08:37:49.198Z,14.00
2019-04-06T08:40:18.140Z,14.00
2019-04-06T08:42:46.787Z,14.40
2019-04-06T08:45:15.602Z,14.30
2019-04-06T08:47:44.325Z,13.90
2019-04-06T08:50:13.134Z,14.00
2019-04-06T08:52:42.063Z,14.20
2019-04-06T08:55:10.820Z,14.30
2019-04-06T08:57:39.501Z,14.30
2019-04-06T09:00:09.249Z,14.50
2019-04-06T09:02:39.401Z,14.60
2019-04-06T09:05:08.617Z,14.70
2019-04-06T09:07:37.633Z,15.10
2019-04-06T09:10:07.057Z,14.90
2019-04-06T09:12:35.918Z,15.20
2019-04-06T09:15:07.042Z,15.10
2019-04-06T09:17:35.861Z,14.90
2019-04-06T09:20:07.697Z,15.00
2019-04-06T09:22:36.383Z,14.90
2019-04-06T09:25:07.803Z,14.80
2019-04-06T09:27:36.645Z,15.10
2019-04-06T09:30:06.623Z,15.00
2019-04-06T09:32:35.392Z,15.10
2019-04-06T09:35:05.426Z,15.20
2019-04-06T09:37:34.282Z,15.00
2019-04-06T09:40:04.001Z,14.80
2019-04-06T09:42:32.757Z,14.90
2019-04-06T09:45:03.238Z,14.90
2019-04-06T09:47:42.283Z,15.00
2019-04-06T09:50:12.724Z,15.10
2019-04-06T09:52:43.207Z,15.30
2019-04-06T09:55:14.143Z,15.10
2019-04-06T09:57:59.267Z,15.00
2019-04-06T10:00:29.885Z,15.30
2019-04-06T10:03:00.255Z,15.30
2019-04-06T10:05:33.285Z,15.30
2019-04-06T10:08:19.926Z,15.40
2019-04-06T10:10:59.348Z,15.40
2019-04-06T10:13:29.750Z,15.40
2019-04-06T10:16:12.006Z,15.50
2019-04-06T10:18:57.701Z,15.50
2019-04-06T10:21:44.263Z,15.30
2019-04-06T10:24:17.568Z,15.50
2019-04-06T10:27:04.283Z,15.40
2019-04-06T10:29:49.264Z,15.70
2019-04-06T10:32:27.811Z,15.70
2019-04-06T10:35:03.722Z,15.70
2019-04-06T10:37:33.993Z,16.00
2019-04-06T10:40:04.316Z,16.40
2019-04-06T10:42:43.970Z,16.10
2019-04-06T10:45:17.004Z,15.90
2019-04-06T10:47:47.254Z,16.10
2019-04-06T10:50:17.574Z,16.40
2019-04-06T10:52:50.676Z,16.20
2019-04-06T10:55:33.081Z,16.40
2019-04-06T10:58:21.435Z,16.30
2019-04-06T11:00:51.699Z,16.40
2019-04-06T11:03:27.643Z,16.10
2019-04-06T11:06:00.537Z,16.40
2019-04-06T11:08:46.875Z,16.40
2019-04-06T11:11:20.370Z,16.30
2019-04-06T11:14:05.627Z,16.50
2019-04-06T11:16:51.920Z,16.30
2019-04-06T11:19:30.907Z,16.60
2019-04-06T11:22:03.863Z,16.50
2019-04-06T11:24:34.140Z,16.80
2019-04-06T11:27:04.707Z,16.70
2019-04-06T11:29:43.883Z,16.80
2019-04-06T11:32:14.460Z,16.60
2019-04-06T11:34:44.917Z,17.00
2019-04-06T11:37:31.399Z,16.80
2019-04-06T11:40:17.605Z,17.00
2019-04-06T11:42:56.398Z,16.90
2019-04-06T11:45:42.904Z,16.90
2019-04-06T11:48:29.430Z,16.90
2019-04-06T11:50:59.831Z,16.90
2019-04-06T11:53:38.745Z,17.10
2019-04-06T11:56:14.890Z,17.20
2019-04-06T11:59:01.583Z,17.40
2019-04-06T12:01:40.895Z,17.40
2019-04-06T12:04:16.792Z,17.40
2019-04-06T12:06:52.850Z,17.50
2019-04-06T12:09:39.261Z,17.40
2019-04-06T12:12:09.671Z,17.50
2019-04-06T12:14:55.226Z,17.60
2019-04-06T12:17:40.945Z,17.70
2019-04-06T12:20:20.733Z,17.70
2019-04-06T12:22:54.207Z,17.70
2019-04-06T12:25:43.046Z,17.60
2019-04-06T12:28:21.330Z,17.50
2019-04-06T12:30:53.721Z,17.70
2019-04-06T12:33:42.202Z,17.60
2019-04-06T12:36:28.783Z,17.80
2019-04-06T12:39:05.015Z,17.80
2019-04-06T12:41:38.343Z,17.70
2019-04-06T12:44:11.387Z,17.80
2019-04-06T12:46:41.969Z,17.90
2019-04-06T12:49:24.571Z,17.80
2019-04-06T12:51:54.901Z,18.20
2019-04-06T12:54:30.825Z,18.00
2019-04-06T12:57:04.153Z,18.10
2019-04-06T12:59:52.617Z,18.00
2019-04-06T13:02:23.158Z,17.90
2019-04-06T13:04:56.231Z,18.00
2019-04-06T13:07:26.856Z,18.10
2019-04-06T13:10:13.574Z,18.20
2019-04-06T13:12:46.670Z,18.50
2019-04-06T13:15:19.781Z,18.50
2019-04-06T13:18:06.289Z,18.60
2019-04-06T13:20:36.583Z,18.60
2019-04-06T13:23:21.982Z,18.60
2019-04-06T13:26:07.508Z,18.50
2019-04-06T13:28:56.060Z,18.50
2019-04-06T13:31:44.400Z,18.60
2019-04-06T13:34:20.782Z,18.60
2019-04-06T13:37:02.948Z,18.50
2019-04-06T13:39:38.899Z,18.60
2019-04-06T13:42:25.670Z,18.70
2019-04-06T13:45:04.702Z,18.80
2019-04-06T13:47:35.091Z,18.90
2019-04-06T13:50:07.038Z,18.90
2019-04-06T13:52:37.733Z,18.90
2019-04-06T13:55:25.556Z,18.90
2019-04-06T13:57:56.121Z,19.00
2019-04-06T14:00:29.385Z,18.90
2019-04-06T14:03:02.168Z,19.00
2019-04-06T14:05:38.302Z,18.90
2019-04-06T14:08:25.125Z,18.90
2019-04-06T14:11:14.166Z,18.70
2019-04-06T14:13:52.687Z,18.70
2019-04-06T14:16:28.935Z,18.70
2019-04-06T14:19:01.872Z,18.80
2019-04-06T14:21:32.156Z,18.80
2019-04-06T14:24:18.865Z,18.80
2019-04-06T14:27:01.249Z,18.80
2019-04-06T14:29:37.165Z,18.40
2019-04-06T14:32:09.917Z,18.80
2019-04-06T14:34:40.463Z,18.80
2019-04-06T14:37:16.527Z,19.00
2019-04-06T14:39:56.127Z,19.20
2019-04-06T14:42:29.656Z,19.30
2019-04-06T14:45:16.214Z,19.30
2019-04-06T14:47:49.360Z,19.40
2019-04-06T14:50:28.738Z,19.40
2019-04-06T14:53:01.798Z,19.40
2019-04-06T14:55:40.634Z,19.40
2019-04-06T14:58:13.981Z,19.50
2019-04-06T15:01:00.490Z,19.60
2019-04-06T15:03:31.272Z,19.60
2019-04-06T15:06:01.872Z,19.60
2019-04-06T15:08:35.054Z,19.50
2019-04-06T15:11:17.650Z,19.50
2019-04-06T15:13:47.911Z,19.40
2019-04-06T15:16:18.192Z,19.50
2019-04-06T15:18:54.408Z,19.40
2019-04-06T15:21:24.711Z,19.40
2019-04-06T15:23:58.734Z,19.50
2019-04-06T15:26:31.880Z,19.60
2019-04-06T15:29:20.111Z,19.70
2019-04-06T15:31:51.681Z,19.70
2019-04-06T15:34:40.624Z,19.70
2019-04-06T15:37:10.915Z,19.60
2019-04-06T15:39:42.059Z,19.50
2019-04-06T15:42:12.885Z,19.40
2019-04-06T15:44:59.480Z,19.40
2019-04-06T15:47:46.022Z,19.30
2019-04-06T15:50:25.058Z,19.20
2019-04-06T15:53:11.796Z,19.10
2019-04-06T15:55:42.140Z,18.90
2019-04-06T15:58:18.501Z,18.90
2019-04-06T16:00:48.783Z,18.90
2019-04-06T16:03:28.164Z,19.00
2019-04-06T16:06:04.101Z,19.00
2019-04-06T16:08:34.395Z,18.80
2019-04-06T16:11:20.838Z,19.10
2019-04-06T16:13:52.003Z,19.00
2019-04-06T16:16:22.554Z,18.90
2019-04-06T16:18:58.630Z,19.00
2019-04-06T16:21:34.601Z,19.00
2019-04-06T16:24:17.029Z,19.10
2019-04-06T16:26:56.770Z,19.10
2019-04-06T16:29:27.292Z,19.30
2019-04-06T16:32:13.986Z,19.40
2019-04-06T16:34:53.461Z,19.40
2019-04-06T16:37:24.731Z,19.50
2019-04-06T16:40:11.712Z,19.50
2019-04-06T16:42:41.973Z,19.50
2019-04-06T16:45:24.319Z,19.50
2019-04-06T16:48:10.948Z,19.40
2019-04-06T16:50:44.072Z,19.50
2019-04-06T16:53:17.182Z,19.50
2019-04-06T16:55:56.355Z,19.50
2019-04-06T16:58:32.113Z,19.50
2019-04-06T17:01:08.315Z,19.40
2019-04-06T17:03:41.463Z,19.40
2019-04-06T17:06:28.107Z,19.50
2019-04-06T17:09:13.389Z,19.40
2019-04-06T17:11:52.397Z,19.30
2019-04-06T17:14:28.657Z,19.00
2019-04-06T17:17:01.429Z,19.20
2019-04-06T17:19:43.704Z,19.20
2019-04-06T17:22:14.103Z,19.20
2019-04-06T17:24:53.358Z,19.10
2019-04-06T17:27:23.879Z,19.10
2019-04-06T17:29:57.126Z,18.90
2019-04-06T17:32:36.979Z,18.90
2019-04-06T17:35:09.310Z,18.90
2019-04-06T17:37:52.156Z,18.90
2019-04-06T17:40:34.596Z,18.90
2019-04-06T17:43:13.808Z,18.80
2019-04-06T17:45:44.066Z,18.70
2019-04-06T17:48:29.511Z,18.80
2019-04-06T17:51:03.194Z,18.90
2019-04-06T17:53:45.713Z,18.90
2019-04-06T17:56:25.009Z,18.90
2019-04-06T17:58:55.525Z,18.80
2019-04-06T18:01:37.886Z,18.70
2019-04-06T18:04:24.346Z,18.60
2019-04-06T18:07:09.741Z,18.40
2019-04-06T18:09:40.143Z,18.50
2019-04-06T18:12:26.519Z,18.50
2019-04-06T18:14:55.220Z,18.50
2019-04-06T18:17:24.253Z,18.50
2019-04-06T18:19:53.102Z,18.60
2019-04-06T18:22:21.809Z,18.70
2019-04-06T18:24:50.539Z,18.60
2019-04-06T18:27:19.412Z,18.80
2019-04-06T18:29:49.245Z,18.80
2019-04-06T18:32:19.687Z,18.90
2019-04-06T18:34:48.387Z,18.90
2019-04-06T18:37:21.572Z,19.00
2019-04-06T18:39:51.810Z,18.90
2019-04-06T18:42:20.852Z,18.90
2019-04-06T18:44:49.879Z,18.90
2019-04-06T18:47:18.795Z,18.90
2019-04-06T18:49:47.898Z,18.90
2019-04-06T18:52:16.785Z,18.90
2019-04-06T18:54:46.123Z,18.90
2019-04-06T18:57:15.356Z,18.70
2019-04-06T18:59:44.144Z,18.80
2019-04-06T19:02:12.984Z,18.70
2019-04-06T19:04:42.202Z,18.70
2019-04-06T19:07:11.007Z,18.60
2019-04-06T19:09:40.638Z,18.60
2019-04-06T19:12:10.042Z,18.60
2019-04-06T19:14:39.384Z,18.40
2019-04-06T19:17:08.469Z,18.50
2019-04-06T19:19:37.409Z,18.40
2019-04-06T19:22:06.149Z,18.40
2019-04-06T19:24:35.109Z,18.60
2019-04-06T19:27:04.418Z,18.30
2019-04-06T19:29:33.251Z,18.30
2019-04-06T19:32:02.838Z,18.10
2019-04-06T19:34:31.656Z,18.30
2019-04-06T19:37:00.421Z,18.30
2019-04-06T19:39:29.172Z,18.30
2019-04-06T19:41:58.357Z,18.20
2019-04-06T19:44:27.299Z,18.20
2019-04-06T19:46:56.048Z,18.20
2019-04-06T19:49:25.261Z,18.10
2019-04-06T19:51:54.418Z,18.00
2019-04-06T19:54:23.310Z,18.10
2019-04-06T19:56:52.023Z,18.20
2019-04-06T19:59:21.144Z,18.00
2019-04-06T20:01:49.967Z,17.90
2019-04-06T20:04:18.654Z,18.00
2019-04-06T20:06:47.831Z,17.80
2019-04-06T20:09:16.590Z,17.80
2019-04-06T20:11:45.575Z,17.80
2019-04-06T20:14:14.643Z,17.80
2019-04-06T20:16:43.402Z,17.90
2019-04-06T20:19:12.567Z,18.10
2019-04-06T20:21:42.005Z,17.70
2019-04-06T20:24:10.806Z,17.50
2019-04-06T20:26:40.111Z,17.60
2019-04-06T20:29:09.081Z,17.70
2019-04-06T20:31:38.041Z,17.60
2019-04-06T20:34:06.748Z,17.50
2019-04-06T20:36:35.569Z,17.60
2019-04-06T20:39:07.634Z,17.40
2019-04-06T20:41:36.432Z,17.50
2019-04-06T20:44:05.841Z,17.50
2019-04-06T20:46:34.562Z,17.30
2019-04-06T20:49:04.417Z,17.30
2019-04-06T20:51:33.313Z,17.40
2019-04-06T20:54:02.523Z,17.30
2019-04-06T20:56:31.497Z,17.20
2019-04-06T20:59:01.389Z,17.30
2019-04-06T21:01:30.242Z,17.40
2019-04-06T21:04:02.647Z,17.40
2019-04-06T21:06:29.591Z,17.30
2019-04-06T21:08:58.663Z,17.30
2019-04-06T21:11:27.443Z,17.40
2019-04-06T21:13:56.716Z,17.50
2019-04-06T21:16:25.549Z,17.30
2019-04-06T21:18:54.723Z,17.20
2019-04-06T21:21:23.707Z,17.10
2019-04-06T21:23:52.907Z,17.10
2019-04-06T21:26:22.473Z,17.00
2019-04-06T21:28:52.904Z,16.90
2019-04-06T21:31:21.835Z,16.80
2019-04-06T21:33:50.511Z,16.80
2019-04-06T21:36:19.238Z,16.90
2019-04-06T21:38:48.220Z,16.70
2019-04-06T21:41:16.945Z,16.70
2019-04-06T21:43:45.691Z,16.60
2019-04-06T21:46:14.594Z,16.50
2019-04-06T21:48:43.282Z,16.50
2019-04-06T21:51:12.445Z,16.60
2019-04-06T21:53:41.343Z,16.60
2019-04-06T21:56:10.054Z,16.60
2019-04-06T21:58:39.230Z,16.50
2019-04-06T22:01:11.919Z,16.60
2019-04-06T22:03:41.037Z,16.60
2019-04-06T22:06:09.862Z,16.50
2019-04-06T22:08:38.571Z,16.50
2019-04-06T22:11:07.315Z,16.40
2019-04-06T22:13:36.552Z,16.70
2019-04-06T22:16:24.596Z,16.60
2019-04-06T22:18:53.651Z,16.70
2019-04-06T22:21:22.699Z,16.70
2019-04-06T22:23:52.381Z,16.60
2019-04-06T22:26:21.101Z,16.40
2019-04-06T22:28:50.131Z,16.40
2019-04-06T22:31:20.050Z,16.50
2019-04-06T22:33:49.082Z,16.60
2019-04-06T22:36:17.966Z,16.50
2019-04-06T22:38:47.019Z,16.40
2019-04-06T22:41:15.868Z,16.20
2019-04-06T22:43:44.603Z,16.20
2019-04-06T22:46:13.558Z,16.40
2019-04-06T22:48:42.634Z,16.30
2019-04-06T22:51:11.469Z,16.20
2019-04-06T22:53:40.883Z,16.20
2019-04-06T22:56:09.985Z,16.20
2019-04-06T22:58:39.183Z,16.40
2019-04-06T23:01:11.952Z,16.00
2019-04-06T23:03:42.330Z,16.30
2019-04-06T23:06:12.964Z,16.10
2019-04-06T23:08:42.297Z,16.40
2019-04-06T23:11:11.674Z,16.40
2019-04-06T23:13:41.081Z,16.20
2019-04-06T23:16:10.338Z,16.20
2019-04-06T23:18:39.111Z,16.10
2019-04-06T23:21:08.204Z,15.90
2019-04-06T23:23:37.097Z,16.20
2019-04-06T23:26:05.906Z,16.20
2019-04-06T23:28:34.622Z,16.30
2019-04-06T23:31:03.911Z,16.30
2019-04-06T23:33:32.775Z,16.20
2019-04-06T23:36:02.112Z,16.10
2019-04-06T23:38:30.881Z,16.20
2019-04-06T23:41:00.234Z,16.40
2019-04-06T23:43:29.014Z,16.30
2019-04-06T23:45:58.328Z,16.20
2019-04-06T23:48:27.020Z,16.20
2019-04-06T23:50:56.136Z,16.10
2019-04-06T23:53:25.352Z,16.40
2019-04-06T23:55:54.319Z,16.20
2019-04-06T23:58:22.992Z,16.10
